Time;durP1;ratioP1;P1;durP2;ratioP2;P2;SDS_P1;SDS_P2;PMS_P1;PMS_P2;Temp;Humidity;BMP_temperature;BMP_pressure;BME280_temperature;BME280_humidity;BME280_pressure;Samples;Min_cycle;Max_cycle;Signal;HPM_P1;HPM_P2
2021/08/10 00:05:23;;;;;;;;;;;;;;;;;;;;;
2021/08/10 00:08:15;;;;;;;14.13;4.60;;;16.80;99.90;;;;;;5916598;24;20454;-83
2021/08/10 00:10:45;;;;;;;;;;;16.80;99.90;;;;;;5908816;24;20025;-83
2021/08/10 00:13:50;;;;;;;;;;;;;;;;;;;;;
2021/08/10 00:16:27;;;;;;;16.50;4.85;;;16.80;99.90;;;;;;5930661;24;20028;-81
2021/08/10 00:19:04;;;;;;;18.10;5.60;;;16.80;99.90;;;;;;5916447;24;20025;-82
2021/08/10 00:22:03;;;;;;;;;;;;;;;;;;;;;
2021/08/10 00:25:17;;;;;;;;;;;;;;;;;;;;;
2021/08/10 00:28:10;;;;;;;18.65;5.88;;;16.90;99.90;;;;;;6093255;23;20018;-80
2021/08/10 00:30:51;;;;;;;18.08;5.75;;;16.90;99.90;;;;;;6066945;23;20026;-83
2021/08/10 00:33:20;;;;;;;21.17;6.18;;;16.90;99.90;;;;;;6081454;23;20073;-84
2021/08/10 00:35:47;;;;;;;23.20;5.65;;;16.90;99.90;;;;;;6103107;23;20033;-83
2021/08/10 00:38:18;;;;;;;19.27;6.10;;;16.90;99.90;;;;;;6124482;23;20017;-83
2021/08/10 00:41:25;;;;;;;15.52;5.63;;;16.90;99.90;;;;;;6073682;23;20021;-83
2021/08/10 00:44:18;;;;;;;22.70;7.00;;;16.90;99.90;;;;;;6098335;23;20021;-83
2021/08/10 00:47:28;;;;;;;24.70;6.25;;;16.90;99.90;;;;;;6096643;23;20072;-82
2021/08/10 00:50:20;;;;;;;22.20;5.93;;;16.90;99.90;;;;;;6084944;23;20025;-83
2021/08/10 00:52:54;;;;;;;30.65;7.35;;;16.90;99.90;;;;;;6089715;23;20022;-83
2021/08/10 00:55:49;;;;;;;22.70;5.60;;;16.90;99.90;;;;;;6123687;23;20036;-84
2021/08/10 00:58:22;;;;;;;28.58;6.13;;;16.90;99.90;;;;;;6136083;23;20084;-82
2021/08/10 01:01:11;;;;;;;28.63;6.53;;;16.90;99.90;;;;;;6091003;23;20082;-83
2021/08/10 01:03:42;;;;;;;25.70;6.78;;;16.90;99.90;;;;;;6106621;23;20029;-83
2021/08/10 01:06:17;;;;;;;27.65;7.00;;;16.90;99.90;;;;;;6137187;23;20395;-83
2021/08/10 01:08:59;;;;;;;21.38;6.68;;;17.00;99.90;;;;;;6135379;23;20021;-80
2021/08/10 01:11:50;;;;;;;26.88;6.90;;;16.90;99.90;;;;;;6140958;23;20025;-83
2021/08/10 01:14:36;;;;;;;25.27;6.65;;;17.00;99.90;;;;;;6125003;23;20080;-83
2021/08/10 01:17:15;;;;;;;22.02;6.18;;;17.00;99.90;;;;;;6125696;23;20464;-83
2021/08/10 01:20:21;;;;;;;25.35;7.55;;;17.00;99.90;;;;;;6116585;23;20033;-82
2021/08/10 01:23:41;;;;;;;51.45;7.85;;;17.00;99.90;;;;;;6082023;23;20021;-83
2021/08/10 01:27:24;;;;;;;37.30;6.72;;;17.00;99.90;;;;;;6060997;23;20049;-84
2021/08/10 01:30:06;;;;;;;70.60;7.43;;;17.00;99.90;;;;;;6025062;23;20031;-83
2021/08/10 01:33:28;;;;;;;;;;;;;;;;;;;;;
2021/08/10 01:37:03;;;;;;;;;;;;;;;;;;;;;
2021/08/10 01:39:39;;;;;;;28.30;9.23;;;16.90;99.90;;;;;;5728843;24;20060;-84
2021/08/10 02:10:11;;;;;;;;;;;;;;;;;;;;;
2021/08/10 02:38:22;;;;;;;13.15;6.75;;;16.50;99.90;;;;;;5918070;23;20319;-83
2021/08/10 02:41:24;;;;;;;;;;;;;;;;;;;;;
2021/08/10 03:00:55;;;;;;;5.15;3.25;;;16.00;99.90;;;;;;5040404;23;23892751;-81
2021/08/10 03:04:19;;;;;;;;;;;;;;;;;;;;;
2021/08/10 03:07:53;;;;;;;;;;;;;;;;;;;;;
2021/08/10 03:21:30;;;;;;;6.32;3.30;;;15.90;99.90;;;;;;6102395;23;20359;-79
2021/08/10 03:24:12;;;;;;;6.95;2.95;;;15.80;99.90;;;;;;6073181;23;20125;-82
2021/08/10 03:27:05;;;;;;;5.15;2.92;;;15.80;99.90;;;;;;6087015;23;20065;-83
2021/08/10 03:29:45;;;;;;;6.18;3.10;;;15.80;99.90;;;;;;6055207;23;20081;-84
2021/08/10 03:32:36;;;;;;;5.13;2.95;;;15.80;99.90;;;;;;5958000;24;20195;-82
2021/08/10 03:35:28;;;;;;;7.13;3.22;;;15.80;99.90;;;;;;5962763;23;20024;-82
2021/08/10 03:38:18;;;;;;;5.53;3.33;;;15.80;99.90;;;;;;5946312;24;20028;-83
2021/08/10 03:41:01;;;;;;;5.60;3.33;;;15.80;99.90;;;;;;5973608;24;20024;-83
2021/08/10 03:43:59;;;;;;;6.03;3.65;;;15.80;99.90;;;;;;5984474;24;20378;-84
2021/08/10 03:46:45;;;;;;;7.40;3.40;;;15.80;99.90;;;;;;5918231;23;20028;-83
2021/08/10 03:49:18;;;;;;;9.23;3.88;;;15.80;99.90;;;;;;5982312;23;20484;-81
2021/08/10 03:52:05;;;;;;;7.55;3.55;;;15.80;99.90;;;;;;6093528;23;20093;-82
2021/08/10 03:54:35;;;;;;;8.18;3.70;;;15.80;99.90;;;;;;6088365;23;20018;-83
2021/08/10 03:57:25;;;;;;;6.32;3.85;;;15.80;99.90;;;;;;6099461;23;20019;-82
2021/08/10 04:00:06;;;;;;;;;;;;;;;;;;;;;
2021/08/10 04:02:55;;;;;;;12.60;4.50;;;15.90;99.90;;;;;;6073311;23;20098;-83
2021/08/10 04:05:38;;;;;;;6.32;4.50;;;15.80;99.90;;;;;;6047430;23;20015;-82
2021/08/10 04:08:14;;;;;;;8.90;4.63;;;15.90;99.90;;;;;;6048814;23;20022;-82
2021/08/10 04:10:57;;;;;;;6.85;4.93;;;15.80;99.90;;;;;;6091410;23;20365;-82
2021/08/10 04:13:35;;;;;;;8.23;4.82;;;15.80;99.90;;;;;;6050266;23;20317;-83
2021/08/10 04:16:10;;;;;;;6.50;5.00;;;15.80;99.90;;;;;;6111950;23;20432;-78
2021/08/10 04:19:00;;;;;;;6.70;5.28;;;15.80;99.90;;;;;;6069946;23;20100;-81
2021/08/10 04:21:42;;;;;;;10.02;5.80;;;15.80;99.90;;;;;;6066270;23;20025;-83
2021/08/10 04:24:16;;;;;;;8.65;5.35;;;15.80;99.90;;;;;;6083233;23;20109;-83
2021/08/10 04:26:46;;;;;;;8.48;5.70;;;15.80;99.90;;;;;;6083559;23;20019;-83
2021/08/10 04:29:34;;;;;;;14.30;6.38;;;15.80;99.90;;;;;;6081013;23;20022;-83
2021/08/10 04:32:23;;;;;;;9.18;5.60;;;15.80;99.90;;;;;;6057466;23;20034;-79
2021/08/10 04:35:16;;;;;;;11.00;6.10;;;15.80;99.90;;;;;;5954843;23;20075;-83
2021/08/10 04:38:02;;;;;;;8.73;5.90;;;15.80;99.90;;;;;;5989943;23;20027;-81
2021/08/10 04:40:38;;;;;;;10.20;6.70;;;15.80;99.90;;;;;;5996169;23;20023;-83
2021/08/10 04:43:12;;;;;;;8.77;6.47;;;15.80;99.90;;;;;;6012234;23;20027;-84
2021/08/10 04:46:09;;;;;;;;;;;;;;;;;;;;;
2021/08/10 04:48:50;;;;;;;11.00;6.53;;;15.70;99.90;;;;;;5860676;24;20137;-83
2021/08/10 04:51:22;;;;;;;10.73;6.10;;;15.70;99.90;;;;;;5889921;24;20489;-83
2021/08/10 04:54:03;;;;;;;10.90;6.45;;;15.70;99.90;;;;;;5933062;24;20084;-82
2021/08/10 04:56:39;;;;;;;12.13;6.85;;;15.70;99.90;;;;;;5954632;23;20028;-81
2021/08/10 04:59:07;;;;;;;11.15;6.55;;;15.70;99.90;;;;;;5943404;24;20054;-82
2021/08/10 05:02:01;;;;;;;11.60;6.60;;;15.70;99.90;;;;;;5934070;24;20032;-83
2021/08/10 05:04:46;;;;;;;8.98;6.07;;;15.70;99.90;;;;;;6103294;23;20030;-81
2021/08/10 05:07:14;;;;;;;13.13;5.88;;;15.70;99.90;;;;;;6094215;23;20025;-83
2021/08/10 05:09:42;;;;;;;13.38;6.32;;;15.70;99.90;;;;;;6094922;23;20022;-83
2021/08/10 05:12:10;;;;;;;;;;;15.70;99.90;;;;;;6070968;23;20022;-83
2021/08/10 05:14:41;;;;;;;10.70;6.10;;;15.70;99.90;;;;;;6084295;23;19947;-83
2021/08/10 05:17:08;;;;;;;13.40;7.43;;;15.70;99.90;;;;;;6080753;23;20082;-81
2021/08/10 05:19:37;;;;;;;;;;;15.70;99.90;;;;;;6095280;23;20026;-83
2021/08/10 05:22:14;;;;;;;;;;;;;;;;;;;;;
2021/08/10 05:24:42;;;;;;;13.13;6.75;;;15.70;99.90;;;;;;6096029;23;20042;-83
2021/08/10 05:27:12;;;;;;;13.18;6.78;;;15.60;99.90;;;;;;6068729;23;20443;-82
2021/08/10 05:29:45;;;;;;;11.38;6.90;;;15.70;99.90;;;;;;6094114;23;20022;-83
2021/08/10 05:32:25;;;;;;;12.55;6.75;;;15.70;99.90;;;;;;6067085;23;20036;-83
2021/08/10 05:35:01;;;;;;;12.95;6.68;;;15.70;99.90;;;;;;6094802;23;20018;-83
2021/08/10 05:37:35;;;;;;;9.73;7.03;;;15.70;99.90;;;;;;6084232;23;20523;-83
2021/08/10 05:40:06;;;;;;;11.88;6.68;;;15.80;99.90;;;;;;6094156;23;20372;-83
2021/08/10 05:42:46;;;;;;;14.52;6.45;;;15.80;99.90;;;;;;6079398;23;20101;-80
2021/08/10 05:45:33;;;;;;;10.73;7.00;;;15.80;99.90;;;;;;6070732;23;20375;-83
2021/08/10 05:48:15;;;;;;;12.65;6.57;;;15.90;99.90;;;;;;6050411;23;20105;-83
2021/08/10 05:51:03;;;;;;;19.70;7.43;;;15.90;99.90;;;;;;6094640;23;20026;-83
2021/08/10 05:53:35;;;;;;;11.73;7.38;;;15.90;99.90;;;;;;6093159;23;20030;-82
2021/08/10 05:56:19;;;;;;;18.42;8.68;;;15.90;99.90;;;;;;6064565;23;20471;-84
2021/08/10 05:59:14;;;;;;;14.00;8.40;;;15.90;99.90;;;;;;6082756;23;20432;-83
2021/08/10 06:01:53;;;;;;;13.18;8.00;;;15.90;99.90;;;;;;6067073;23;20018;-83
2021/08/10 06:04:32;;;;;;;17.23;9.00;;;15.90;99.90;;;;;;6071141;23;20461;-83
2021/08/10 06:07:07;;;;;;;16.33;9.20;;;16.00;99.90;;;;;;6097572;23;20014;-83
2021/08/10 06:09:44;;;;;;;11.60;8.27;;;16.00;99.90;;;;;;6085086;23;20022;-83
2021/08/10 06:12:31;;;;;;;13.10;7.93;;;16.00;99.90;;;;;;6072665;23;20018;-83
2021/08/10 06:15:23;;;;;;;13.80;7.80;;;16.10;99.90;;;;;;6092910;23;20029;-83
2021/08/10 06:18:22;;;;;;;;;;;;;;;;;;;;;
2021/08/10 06:21:47;;;;;;;16.70;7.43;;;16.20;99.90;;;;;;5956980;23;20024;-84
2021/08/10 06:24:51;;;;;;;;;;;;;;;;;;;;;
2021/08/10 06:27:25;;;;;;;9.70;6.10;;;16.30;99.90;;;;;;5954660;23;20034;-83
2021/08/10 06:29:59;;;;;;;12.25;7.00;;;16.30;99.90;;;;;;5974966;23;20034;-83
2021/08/10 06:32:59;;;;;;;9.93;6.85;;;16.30;99.90;;;;;;5953478;23;20058;-83
2021/08/10 06:35:59;;;;;;;;;;;;;;;;;;;;;
2021/08/10 06:43:00;;;;;;;7.90;4.80;;;16.40;99.90;;;;;;5918657;23;20032;-82
2021/08/10 06:46:27;;;;;;;;;;;;;;;;;;;;;
2021/08/10 06:49:23;;;;;;;8.38;4.55;;;16.40;99.90;;;;;;5861016;24;20371;-84
2021/08/10 06:52:34;;;;;;;9.07;4.80;;;16.50;99.90;;;;;;5877627;24;20448;-82
2021/08/10 06:55:45;;;;;;;;;;;;;;;;;;;;;
2021/08/10 06:58:54;;;;;;;;;;;;;;;;;;;;;
2021/08/10 07:02:24;;;;;;;9.05;5.15;;;16.60;99.90;;;;;;5785275;24;20929;-83
2021/08/10 07:05:24;;;;;;;;;;;;;;;;;;;;;
2021/08/10 07:08:19;;;;;;;11.32;4.40;;;16.70;99.90;;;;;;5775460;24;20076;-83
2021/08/10 07:11:07;;;;;;;9.50;4.85;;;16.70;99.90;;;;;;5818655;24;20168;-83
2021/08/10 07:13:43;;;;;;;7.18;4.70;;;16.80;99.90;;;;;;5762651;24;20080;-80
2021/08/10 07:16:34;;;;;;;9.63;5.50;;;16.80;99.90;;;;;;5843575;24;20034;-83
2021/08/10 07:19:08;;;;;;;9.23;5.43;;;16.80;99.90;;;;;;5861643;24;20018;-82
2021/08/10 07:22:18;;;;;;;;;;;;;;;;;;;;;
2021/08/10 07:25:44;;;;;;;10.32;5.20;;;16.80;99.90;;;;;;5803105;24;20025;-83
2021/08/10 07:29:07;;;;;;;8.43;5.13;;;16.90;99.90;;;;;;5870273;24;20346;-83
2021/08/10 07:32:18;;;;;;;10.32;4.45;;;16.90;99.90;;;;;;5883688;24;20028;-80
2021/08/10 07:35:15;;;;;;;8.63;4.13;;;16.90;99.90;;;;;;5934695;24;20391;-83
2021/08/10 07:38:11;;;;;;;7.30;4.70;;;16.90;99.90;;;;;;5944495;23;20048;-82
2021/08/10 07:41:05;;;;;;;;;;;;;;;;;;;;;
2021/08/10 07:43:58;;;;;;;7.25;4.22;;;17.10;99.90;;;;;;5964893;23;20392;-83
2021/08/10 07:47:08;;;;;;;;;;;;;;;;;;;;;
2021/08/10 07:50:22;;;;;;;10.25;3.92;;;17.20;99.90;;;;;;6007037;23;20023;-83
2021/08/10 07:53:23;;;;;;;7.53;3.30;;;17.30;99.90;;;;;;5955820;23;20032;-83
2021/08/10 07:59:00;;;;;;;5.50;3.17;;;17.40;99.90;;;;;;5947332;23;20050;-83
2021/08/10 08:01:38;;;;;;;;;;;17.60;99.90;;;;;;5966551;23;20028;-84
2021/08/10 08:04:36;;;;;;;8.02;3.35;;;17.50;99.90;;;;;;5943536;23;19918;-83
2021/08/10 08:07:04;;;;;;;5.38;2.92;;;17.50;99.90;;;;;;5952269;23;20020;-84
2021/08/10 08:09:32;;;;;;;;;;;17.60;99.90;;;;;;5955537;23;20051;-83
2021/08/10 08:12:04;;;;;;;7.10;2.95;;;17.70;99.90;;;;;;5955191;23;20183;-80
2021/08/10 08:15:13;;;;;;;9.75;3.05;;;17.80;99.90;;;;;;5962513;23;20016;-83
2021/08/10 08:18:35;;;;;;;6.07;3.03;;;17.70;99.90;;;;;;5970379;23;20114;-81
2021/08/10 08:21:46;;;;;;;;;;;;;;;;;;;;;
2021/08/10 08:31:34;;;;;;;8.02;3.22;;;18.10;99.90;;;;;;5685557;24;20059;-84
2021/08/10 08:34:36;;;;;;;;;;;;;;;;;;;;;
2021/08/10 08:37:13;;;;;;;5.57;2.75;;;18.30;99.90;;;;;;5721532;24;20501;-83
2021/08/10 08:40:23;;;;;;;;;;;;;;;;;;;;;
2021/08/10 08:43:28;;;;;;;6.32;3.25;;;18.50;99.90;;;;;;5732801;24;20033;-83
2021/08/10 08:46:24;;;;;;;;;;;;;;;;;;;;;
2021/08/10 08:49:31;;;;;;;;;;;;;;;;;;;;;
2021/08/10 08:52:22;;;;;;;;;;;;;;;;;;;;;
2021/08/10 08:55:41;;;;;;;;;;;;;;;;;;;;;
2021/08/10 08:58:08;;;;;;;4.28;2.70;;;18.60;99.90;;;;;;5668213;24;20016;-83
2021/08/10 09:03:30;;;;;;;4.97;2.80;;;18.80;99.90;;;;;;5676219;24;20024;-83
2021/08/10 09:25:44;;;;;;;6.80;3.05;;;19.90;99.90;;;;;;6089775;22;3323494;-81
2021/08/10 09:53:15;;;;;;;;;;;;;;;;;;;;;
2021/08/10 09:57:03;;;;;;;;;;;;;;;;;;;;;
2021/08/10 10:00:10;;;;;;;6.43;2.92;;;19.90;99.90;;;;;;5717111;24;20491;-83
2021/08/10 10:03:35;;;;;;;5.95;2.95;;;19.70;99.90;;;;;;5705647;24;20027;-81
2021/08/10 10:09:35;;;;;;;4.65;2.60;;;19.60;99.90;;;;;;5641139;24;20110;-83
2021/08/10 10:15:41;;;;;;;5.85;2.88;;;19.90;99.90;;;;;;5694767;24;20055;-84
2021/08/10 10:18:40;;;;;;;;;;;;;;;;;;;;;
2021/08/10 13:56:53;;;;;;;4.38;2.60;;;22.20;99.90;;;;;;5571908;22;15058623;-81
2021/08/10 14:00:06;;;;;;;;;;;;;;;;;;;;;
2021/08/10 14:02:54;;;;;;;4.55;2.45;;;22.00;99.90;;;;;;5837871;24;20024;-83
2021/08/10 15:43:44;;;;;;;;;;;;;;;;;;;;;
2021/08/10 15:56:58;;;;;;;4.18;1.80;;;20.50;99.90;;;;;;4923711;22;30270637;-81
2021/08/10 15:59:51;;;;;;;4.47;1.73;;;20.50;99.90;;;;;;6217001;23;20449;-83
2021/08/10 16:02:39;;;;;;;;;;;;;;;;;;;;;
2021/08/10 16:05:27;;;;;;;2.15;1.20;;;20.50;99.90;;;;;;6210208;23;20025;-83
2021/08/10 16:07:59;;;;;;;3.15;1.95;;;20.40;99.90;;;;;;6215747;23;20016;-83
2021/08/10 16:10:49;;;;;;;3.17;1.70;;;20.30;99.90;;;;;;6208647;23;20032;-81
2021/08/10 16:13:50;;;;;;;;;;;;;;;;;;;;;
2021/08/10 16:17:08;;;;;;;;;;;;;;;;;;;;;
2021/08/10 16:20:27;;;;;;;3.85;1.67;;;20.20;99.90;;;;;;5801133;24;20027;-83
2021/08/10 16:37:23;;;;;;;3.10;1.60;;;20.20;99.90;;;;;;5607101;22;15093957;-84
2021/08/10 16:43:38;;;;;;;4.22;1.40;;;20.40;99.90;;;;;;6028596;23;20019;-82
2021/08/10 16:46:21;;;;;;;3.50;1.63;;;20.40;99.90;;;;;;5995013;23;20376;-84
2021/08/10 16:52:22;;;;;;;4.65;1.83;;;20.40;99.90;;;;;;6077900;23;20025;-84
2021/08/10 16:58:31;;;;;;;;;;;;;;;;;;;;;
2021/08/10 17:01:50;;;;;;;3.45;1.45;;;20.50;99.90;;;;;;5982932;23;20028;-84
2021/08/10 17:04:41;;;;;;;3.15;1.67;;;20.50;99.90;;;;;;6005885;23;20047;-84
2021/08/10 17:07:32;;;;;;;;;;;;;;;;;;;;;
2021/08/10 17:10:26;;;;;;;;;;;20.60;99.90;;;;;;6028102;23;20444;-83
2021/08/10 17:13:17;;;;;;;2.75;1.40;;;20.60;99.90;;;;;;6034829;23;19925;-84
2021/08/10 17:16:13;;;;;;;3.92;1.80;;;20.60;99.90;;;;;;5968993;23;20023;-82
2021/08/10 17:19:46;;;;;;;2.90;1.58;;;20.60;99.90;;;;;;5982571;23;20024;-82
2021/08/10 17:22:43;;;;;;;6.47;1.60;;;20.60;99.90;;;;;;5896870;23;20406;-82
2021/08/10 17:26:03;;;;;;;2.78;1.70;;;20.70;99.90;;;;;;5890613;24;20479;-84
2021/08/10 17:29:04;;;;;;;5.10;1.45;;;20.70;99.90;;;;;;5862116;24;20025;-84
2021/08/10 17:32:01;;;;;;;5.70;1.80;;;20.80;99.90;;;;;;5838351;24;20029;-82
2021/08/10 17:38:26;;;;;;;;;;;;;;;;;;;;;
2021/08/10 17:41:18;;;;;;;3.45;1.50;;;20.80;99.90;;;;;;5834611;24;20021;-82
2021/08/10 19:29:03;;;;;;;4.35;1.77;;;20.30;99.90;;;;;;5833117;24;20404;-82
2021/08/10 19:31:53;;;;;;;;;;;;;;;;;;;;;
2021/08/10 19:35:22;;;;;;;;;;;;;;;;;;;;;
2021/08/10 19:54:07;;;;;;;6.07;2.40;;;18.00;99.90;;;;;;5912442;23;3286823;-82
2021/08/10 19:57:45;;;;;;;6.75;2.20;;;17.90;99.90;;;;;;6087013;23;20313;-83
2021/08/10 20:00:41;;;;;;;6.13;1.90;;;17.70;99.90;;;;;;6072499;23;20057;-82
2021/08/10 20:04:03;;;;;;;6.07;2.20;;;17.50;99.90;;;;;;6000368;23;20037;-81
2021/08/10 20:06:47;;;;;;;6.43;2.50;;;17.30;99.90;;;;;;5951268;23;20029;-82
2021/08/10 20:09:37;;;;;;;4.32;2.40;;;17.20;99.90;;;;;;5989505;23;20052;-81
2021/08/10 20:12:39;;;;;;;6.43;2.42;;;17.10;99.90;;;;;;5935555;24;20427;-82
2021/08/10 20:15:13;;;;;;;4.50;2.47;;;17.00;99.90;;;;;;5945312;24;20037;-83
2021/08/10 20:17:48;;;;;;;5.18;2.63;;;16.90;99.90;;;;;;5916345;24;20025;-82
2021/08/10 20:20:27;;;;;;;6.63;2.80;;;16.80;99.90;;;;;;5966689;23;20030;-82
2021/08/10 20:23:34;;;;;;;;;;;;;;;;;;;;;
2021/08/10 20:26:05;;;;;;;6.03;2.63;;;16.60;99.90;;;;;;6069177;23;20053;-82
2021/08/10 20:28:50;;;;;;;7.50;2.80;;;16.50;99.90;;;;;;6034001;23;20022;-83
2021/08/10 20:31:22;;;;;;;5.72;2.78;;;16.40;99.90;;;;;;6125550;23;20014;-80
2021/08/10 20:34:12;;;;;;;6.35;2.90;;;16.30;99.90;;;;;;6155281;23;20022;-83
2021/08/10 20:36:47;;;;;;;6.15;2.70;;;16.20;99.90;;;;;;6124952;23;20291;-83
2021/08/10 20:39:22;;;;;;;7.30;3.15;;;16.20;99.90;;;;;;6099632;23;20017;-83
2021/08/10 20:42:23;;;;;;;7.63;2.50;;;16.10;99.90;;;;;;6023375;23;20022;-83
2021/08/10 20:45:00;;;;;;;9.02;2.65;;;16.00;99.90;;;;;;6052705;23;20023;-82
2021/08/10 20:47:40;;;;;;;7.63;2.95;;;16.00;99.90;;;;;;6034159;23;20545;-81
2021/08/10 20:50:36;;;;;;;6.60;2.53;;;15.90;99.90;;;;;;6056172;23;20031;-82
2021/08/10 20:53:13;;;;;;;4.50;2.63;;;15.80;99.90;;;;;;6056863;23;20034;-81
2021/08/10 20:55:53;;;;;;;5.82;2.60;;;15.80;99.90;;;;;;6050996;23;20033;-83
2021/08/10 20:58:30;;;;;;;;;;;;;;;;;;;;;
2021/08/10 21:01:06;;;;;;;5.72;2.70;;;15.70;99.90;;;;;;6044479;23;20347;-83
2021/08/10 21:04:03;;;;;;;7.18;3.42;;;15.70;99.90;;;;;;6012840;23;20023;-83
2021/08/10 21:06:45;;;;;;;6.00;3.00;;;15.60;99.90;;;;;;6031935;23;20022;-82
2021/08/10 21:09:23;;;;;;;;;;;;;;;;;;;;;
2021/08/10 21:11:53;;;;;;;10.55;3.88;;;15.50;99.90;;;;;;6106619;23;20338;-83
2021/08/10 21:14:47;;;;;;;6.35;3.63;;;15.50;99.90;;;;;;6097217;23;20125;-82
2021/08/10 21:17:49;;;;;;;;;;;;;;;;;;;;;
2021/08/10 21:20:26;;;;;;;8.20;3.42;;;15.40;99.90;;;;;;6036987;23;20103;-80
2021/08/10 21:23:04;;;;;;;7.78;3.60;;;15.40;99.90;;;;;;6046522;23;20023;-82
2021/08/10 21:25:59;;;;;;;7.53;2.92;;;15.30;99.90;;;;;;5896230;24;20029;-80
2021/08/10 21:28:32;;;;;;;7.60;3.47;;;15.30;99.90;;;;;;5900631;24;20044;-83
2021/08/10 21:31:24;;;;;;;8.57;3.25;;;15.20;99.90;;;;;;5910866;24;20032;-82
2021/08/10 21:33:55;;;;;;;11.55;3.22;;;15.20;99.90;;;;;;5819625;24;20310;-81
2021/08/10 21:36:48;;;;;;;10.60;3.72;;;15.20;99.90;;;;;;5879617;24;20029;-82
2021/08/10 21:39:49;;;;;;;8.98;4.28;;;15.20;99.90;;;;;;5885365;24;20027;-82
2021/08/10 21:42:16;;;;;;;8.35;4.25;;;15.10;99.90;;;;;;5885628;24;20026;-83
2021/08/10 21:45:16;;;;;;;;;;;;;;;;;;;;;
2021/08/10 21:48:01;;;;;;;8.73;4.88;;;15.10;99.90;;;;;;6001962;23;20116;-82
2021/08/10 21:50:45;;;;;;;9.63;5.00;;;15.00;99.90;;;;;;6008786;23;20031;-83
2021/08/10 21:53:13;;;;;;;10.02;5.22;;;14.90;99.90;;;;;;5996116;23;20078;-82
2021/08/10 21:55:47;;;;;;;8.52;5.13;;;14.90;99.90;;;;;;6014453;23;20034;-82
2021/08/10 21:58:19;;;;;;;7.63;4.68;;;14.90;99.90;;;;;;5991459;23;20360;-82
2021/08/10 22:00:54;;;;;;;6.70;4.30;;;14.90;99.90;;;;;;5988541;23;20032;-83
2021/08/10 22:03:30;;;;;;;8.65;4.72;;;14.90;99.90;;;;;;5963735;23;20051;-80
2021/08/10 22:06:04;;;;;;;8.45;4.85;;;14.90;99.90;;;;;;5982914;23;20026;-80
2021/08/10 22:08:31;;;;;;;8.07;4.63;;;14.80;99.90;;;;;;6014493;23;20015;-83
2021/08/10 22:11:01;;;;;;;9.82;5.20;;;14.80;99.90;;;;;;6062985;23;20097;-82
2021/08/10 22:13:40;;;;;;;9.48;5.47;;;14.80;99.90;;;;;;6131494;23;20029;-80
2021/08/10 22:16:15;;;;;;;10.27;5.18;;;14.80;99.90;;;;;;6134473;23;20017;-83
2021/08/10 22:18:58;;;;;;;9.40;5.28;;;14.80;99.90;;;;;;6147703;23;20026;-83
2021/08/10 22:21:55;;;;;;;14.45;5.93;;;14.80;99.90;;;;;;6096311;23;20021;-82
2021/08/10 22:24:56;;;;;;;10.30;5.50;;;14.70;99.90;;;;;;6105867;23;20033;-82
2021/08/10 22:28:09;;;;;;;;;;;;;;;;;;;;;
2021/08/10 22:30:58;;;;;;;;;;;;;;;;;;;;;
2021/08/10 22:33:40;;;;;;;8.05;5.93;;;14.70;99.90;;;;;;6033332;23;20079;-82
2021/08/10 22:36:21;;;;;;;10.95;6.35;;;14.70;99.90;;;;;;6034720;23;20038;-82
2021/08/10 22:38:49;;;;;;;11.63;7.10;;;14.70;99.90;;;;;;6035766;23;20087;-82
2021/08/10 22:41:19;;;;;;;10.65;5.82;;;14.70;99.90;;;;;;6044581;23;20072;-82
2021/08/10 22:51:07;;;;;;;;;;;;;;;;;;;;;
2021/08/10 22:54:03;;;;;;;8.25;5.03;;;14.70;99.90;;;;;;5838594;24;20065;-80
2021/08/10 22:57:12;;;;;;;;;;;;;;;;;;;;;
2021/08/10 23:19:39;;;;;;;6.97;3.55;;;14.60;99.90;;;;;;6191485;22;3883197;-83
2021/08/10 23:22:20;;;;;;;6.53;4.28;;;14.40;99.90;;;;;;6247438;22;20474;-83
2021/08/10 23:25:15;;;;;;;5.50;3.70;;;14.40;99.90;;;;;;6221312;22;20126;-83
2021/08/10 23:28:08;;;;;;;7.85;3.53;;;14.40;99.90;;;;;;6159233;22;20363;-80
2021/08/10 23:30:41;;;;;;;7.97;4.07;;;14.30;99.90;;;;;;6239921;22;20073;-83
2021/08/10 23:33:34;;;;;;;6.10;4.10;;;14.30;99.90;;;;;;6249938;22;20015;-83
2021/08/10 23:39:22;;;;;;;;;;;;;;;;;;;;;
2021/08/10 23:42:36;;;;;;;8.70;4.93;;;14.30;99.90;;;;;;6063569;23;20021;-83
2021/08/10 23:46:09;;;;;;;;;;;;;;;;;;;;;
2021/08/10 23:49:20;;;;;;;5.40;3.67;;;14.20;99.90;;;;;;6021595;23;20026;-83
2021/08/10 23:52:16;;;;;;;8.65;4.03;;;14.10;99.90;;;;;;6019750;23;20027;-83
2021/08/10 23:56:05;;;;;;;7.68;4.53;;;14.10;99.90;;;;;;5918558;23;20031;-83
2021/08/10 23:59:37;;;;;;;;;;;;;;;;;;;;;
